createdAt,value
2023-05-05T00:00:22.682Z,0.00
2023-05-05T00:01:22.690Z,0.00
2023-05-05T00:02:22.732Z,0.00
2023-05-05T00:03:23.043Z,0.00
2023-05-05T00:04:22.853Z,0.00
2023-05-05T00:05:22.727Z,0.00
2023-05-05T00:06:22.738Z,0.00
2023-05-05T00:07:22.703Z,0.00
2023-05-05T00:08:22.732Z,0.00
2023-05-05T00:09:22.764Z,0.00
2023-05-05T00:10:22.789Z,0.00
2023-05-05T00:11:22.773Z,0.00
2023-05-05T00:12:22.811Z,0.00
2023-05-05T00:13:22.782Z,0.00
2023-05-05T00:14:22.790Z,0.00
2023-05-05T00:15:22.821Z,0.00
2023-05-05T00:16:22.897Z,0.00
2023-05-05T00:17:22.876Z,0.00
2023-05-05T00:18:22.864Z,0.00
2023-05-05T00:19:22.887Z,0.00
2023-05-05T00:20:22.903Z,0.00
2023-05-05T00:21:22.933Z,0.00
2023-05-05T00:22:22.998Z,0.00
2023-05-05T00:23:22.956Z,0.00
2023-05-05T00:24:22.966Z,0.00
2023-05-05T00:25:22.988Z,0.00
2023-05-05T00:26:23.001Z,0.00
2023-05-05T00:27:23.024Z,0.00
2023-05-05T00:28:23.007Z,0.00
2023-05-05T00:29:23.030Z,0.00
2023-05-05T00:30:23.065Z,0.00
2023-05-05T00:31:23.155Z,0.00
2023-05-05T00:32:23.108Z,0.00
2023-05-05T00:33:23.083Z,0.00
2023-05-05T00:34:23.090Z,0.00
2023-05-05T00:35:23.138Z,0.00
2023-05-05T00:36:23.150Z,0.00
2023-05-05T00:37:23.141Z,0.00
2023-05-05T00:38:23.199Z,0.00
2023-05-05T00:39:23.158Z,0.00
2023-05-05T00:40:23.189Z,0.00
2023-05-05T00:41:23.206Z,0.00
2023-05-05T00:42:23.235Z,0.00
2023-05-05T00:43:23.260Z,0.00
2023-05-05T00:44:23.249Z,0.00
2023-05-05T00:45:23.253Z,0.00
2023-05-05T00:46:23.588Z,0.00
2023-05-05T00:47:23.288Z,0.00
2023-05-05T00:48:23.279Z,0.00
2023-05-05T00:49:23.354Z,0.00
2023-05-05T00:50:23.335Z,0.00
2023-05-05T00:51:23.358Z,0.00
2023-05-05T00:52:23.377Z,0.00
2023-05-05T00:53:23.360Z,0.00
2023-05-05T00:54:23.389Z,0.00
2023-05-05T00:55:23.409Z,0.00
2023-05-05T00:56:23.415Z,0.00
2023-05-05T00:57:23.441Z,0.00
2023-05-05T00:58:23.427Z,0.00
2023-05-05T00:59:23.448Z,0.00
2023-05-05T01:00:23.476Z,0.00
2023-05-05T01:01:23.495Z,0.00
2023-05-05T01:02:23.506Z,0.00
2023-05-05T01:03:23.694Z,0.00
2023-05-05T01:04:23.595Z,0.00
2023-05-05T01:05:23.554Z,0.00
2023-05-05T01:06:23.576Z,0.00
2023-05-05T01:07:23.586Z,0.00
2023-05-05T01:08:23.627Z,0.00
2023-05-05T01:09:23.630Z,0.00
2023-05-05T01:10:23.935Z,0.00
2023-05-05T01:11:23.636Z,0.00
2023-05-05T01:12:23.665Z,0.00
2023-05-05T01:13:23.692Z,0.00
2023-05-05T01:14:23.702Z,0.00
2023-05-05T01:15:23.717Z,0.00
2023-05-05T01:16:23.813Z,0.00
2023-05-05T01:17:23.764Z,0.00
2023-05-05T01:18:23.753Z,0.00
2023-05-05T01:19:23.799Z,0.00
2023-05-05T01:20:23.794Z,0.00
2023-05-05T01:21:23.756Z,0.00
2023-05-05T01:22:23.763Z,0.00
2023-05-05T01:23:23.790Z,0.00
2023-05-05T01:24:23.801Z,0.00
2023-05-05T01:25:23.816Z,0.00
2023-05-05T01:26:23.891Z,0.00
2023-05-05T01:27:23.845Z,0.00
2023-05-05T01:28:23.872Z,0.00
2023-05-05T01:29:23.852Z,0.00
2023-05-05T01:30:23.872Z,0.00
2023-05-05T01:31:23.909Z,0.00
2023-05-05T01:32:23.909Z,0.00
2023-05-05T01:33:23.897Z,0.00
2023-05-05T01:34:23.919Z,0.00
2023-05-05T01:35:23.999Z,0.00
2023-05-05T01:36:23.945Z,0.00
2023-05-05T01:37:24.001Z,0.00
2023-05-05T01:38:23.965Z,0.00
2023-05-05T01:39:23.991Z,0.00
2023-05-05T01:40:24.300Z,0.00
2023-05-05T01:41:24.058Z,0.00
2023-05-05T01:42:24.064Z,0.00
2023-05-05T01:43:24.025Z,0.00
2023-05-05T01:44:24.051Z,0.00
2023-05-05T01:45:24.063Z,0.00
2023-05-05T01:46:24.133Z,0.00
2023-05-05T01:47:24.088Z,0.00
2023-05-05T01:48:24.110Z,0.00
2023-05-05T01:49:24.129Z,0.00
2023-05-05T01:50:24.133Z,0.00
2023-05-05T01:51:24.170Z,0.00
2023-05-05T01:52:24.175Z,0.00
2023-05-05T01:53:24.208Z,0.00
2023-05-05T01:54:24.220Z,0.00
2023-05-05T01:55:24.237Z,0.00
2023-05-05T01:56:24.267Z,0.00
2023-05-05T01:57:24.244Z,0.00
2023-05-05T01:58:24.284Z,0.00
2023-05-05T01:59:24.285Z,0.00
2023-05-05T02:00:24.347Z,0.00
2023-05-05T02:01:24.327Z,0.00
2023-05-05T02:02:24.401Z,0.00
2023-05-05T02:03:24.373Z,0.00
2023-05-05T02:04:24.356Z,0.00
2023-05-05T02:05:24.373Z,0.00
2023-05-05T02:06:24.355Z,0.00
2023-05-05T02:07:24.373Z,0.00
2023-05-05T02:08:24.410Z,0.00
2023-05-05T02:09:24.416Z,0.00
2023-05-05T02:10:24.441Z,0.00
2023-05-05T02:11:24.458Z,0.00
2023-05-05T02:12:24.474Z,0.00
2023-05-05T02:13:24.560Z,0.00
2023-05-05T02:14:24.526Z,0.00
2023-05-05T02:15:24.544Z,0.00
2023-05-05T02:16:24.520Z,0.00
2023-05-05T02:17:24.600Z,0.00
2023-05-05T02:18:24.549Z,0.00
2023-05-05T02:19:24.563Z,0.00
2023-05-05T02:20:24.575Z,0.00
2023-05-05T02:21:24.580Z,0.00
2023-05-05T02:22:24.616Z,0.00
2023-05-05T02:23:24.597Z,0.00
2023-05-05T02:24:24.613Z,0.00
2023-05-05T02:25:24.631Z,0.00
2023-05-05T02:26:24.662Z,0.00
2023-05-05T02:27:24.715Z,0.00
2023-05-05T02:28:24.719Z,0.00
2023-05-05T02:29:24.750Z,0.00
2023-05-05T02:30:24.794Z,0.00
2023-05-05T02:31:24.826Z,0.00
2023-05-05T02:32:24.840Z,0.00
2023-05-05T02:33:24.821Z,0.00
2023-05-05T02:34:24.845Z,0.00
2023-05-05T02:35:24.865Z,0.00
2023-05-05T02:36:24.887Z,0.00
2023-05-05T02:37:25.178Z,0.00
2023-05-05T02:38:24.907Z,0.00
2023-05-05T02:39:24.918Z,0.00
2023-05-05T02:40:24.938Z,0.00
2023-05-05T02:41:24.949Z,0.00
2023-05-05T02:42:24.981Z,0.00
2023-05-05T02:43:24.992Z,0.00
2023-05-05T02:44:24.994Z,0.00
2023-05-05T02:45:24.960Z,0.00
2023-05-05T02:46:25.026Z,0.00
2023-05-05T02:47:25.005Z,0.00
2023-05-05T02:48:24.978Z,0.00
2023-05-05T02:49:24.990Z,0.00
2023-05-05T02:50:25.015Z,0.00
2023-05-05T02:51:25.038Z,0.00
2023-05-05T02:52:25.065Z,0.00
2023-05-05T02:53:25.102Z,0.00
2023-05-05T02:54:25.118Z,0.00
2023-05-05T02:55:25.127Z,0.00
2023-05-05T02:56:25.144Z,0.00
2023-05-05T02:57:25.172Z,0.00
2023-05-05T02:58:25.195Z,0.00
2023-05-05T02:59:25.221Z,0.00
2023-05-05T03:00:25.227Z,0.00
2023-05-05T03:01:25.221Z,0.00
2023-05-05T03:02:25.320Z,0.00
2023-05-05T03:03:25.240Z,0.00
2023-05-05T03:04:25.231Z,0.00
2023-05-05T03:05:25.220Z,0.00
2023-05-05T03:06:25.228Z,0.00
2023-05-05T03:07:25.251Z,0.00
2023-05-05T03:08:25.253Z,0.00
2023-05-05T03:09:25.290Z,0.00
2023-05-05T03:10:25.263Z,0.00
2023-05-05T03:11:25.284Z,0.00
2023-05-05T03:12:25.326Z,0.00
2023-05-05T03:13:25.361Z,0.00
2023-05-05T03:14:25.348Z,0.00
2023-05-05T03:15:25.377Z,0.00
2023-05-05T03:16:25.425Z,0.00
2023-05-05T03:17:25.404Z,0.00
2023-05-05T03:18:25.449Z,0.00
2023-05-05T03:19:25.627Z,1.00
2023-05-05T03:20:25.403Z,1.00
2023-05-05T03:21:25.436Z,1.00
2023-05-05T03:22:25.443Z,1.00
2023-05-05T03:23:25.469Z,1.00
2023-05-05T03:24:25.502Z,1.00
2023-05-05T03:25:25.491Z,2.00
2023-05-05T03:26:25.455Z,2.00
2023-05-05T03:27:25.495Z,2.00
2023-05-05T03:28:25.521Z,3.00
2023-05-05T03:29:25.540Z,3.00
2023-05-05T03:30:25.518Z,3.00
2023-05-05T03:31:25.581Z,5.00
2023-05-05T03:32:25.571Z,6.00
2023-05-05T03:33:25.555Z,7.00
2023-05-05T03:34:25.585Z,7.00
2023-05-05T03:35:25.589Z,9.00
2023-05-05T03:36:27.802Z,10.00
2023-05-05T03:37:25.608Z,11.00
2023-05-05T03:38:25.630Z,13.00
2023-05-05T03:39:25.661Z,16.00
2023-05-05T03:40:36.223Z,17.00
2023-05-05T03:41:25.660Z,21.00
2023-05-05T03:42:25.684Z,23.00
2023-05-05T03:43:25.683Z,26.00
2023-05-05T03:44:25.737Z,29.00
2023-05-05T03:45:25.715Z,32.00
2023-05-05T03:46:25.723Z,36.00
2023-05-05T03:47:25.804Z,40.00
2023-05-05T03:48:25.737Z,45.00
2023-05-05T03:49:25.768Z,49.00
2023-05-05T03:50:25.823Z,55.00
2023-05-05T03:51:25.792Z,61.00
2023-05-05T03:52:25.813Z,67.00
2023-05-05T03:53:25.844Z,74.00
2023-05-05T03:54:25.878Z,81.00
2023-05-05T03:55:25.926Z,89.00
2023-05-05T03:56:25.890Z,98.00
2023-05-05T03:57:25.914Z,108.00
2023-05-05T03:58:25.932Z,119.00
2023-05-05T03:59:25.940Z,129.00
2023-05-05T04:00:25.954Z,140.00
2023-05-05T04:01:25.973Z,152.00
2023-05-05T04:02:26.092Z,166.00
2023-05-05T04:03:26.185Z,181.00
2023-05-05T04:04:26.089Z,197.00
2023-05-05T04:05:26.019Z,212.00
2023-05-05T04:06:26.123Z,226.00
2023-05-05T04:07:26.038Z,238.00
2023-05-05T04:08:26.069Z,249.00
2023-05-05T04:09:26.086Z,259.00
2023-05-05T04:10:26.069Z,267.00
2023-05-05T04:11:26.106Z,276.00
2023-05-05T04:12:26.093Z,287.00
2023-05-05T04:13:26.128Z,296.00
2023-05-05T04:14:26.119Z,300.00
2023-05-05T04:15:26.149Z,304.00
2023-05-05T04:16:26.275Z,310.00
2023-05-05T04:17:26.169Z,318.00
2023-05-05T04:18:26.162Z,326.00
2023-05-05T04:19:26.169Z,334.00
2023-05-05T04:20:26.194Z,340.00
2023-05-05T04:21:26.207Z,346.00
2023-05-05T04:22:26.263Z,352.00
2023-05-05T04:23:26.231Z,360.00
2023-05-05T04:24:26.217Z,370.00
2023-05-05T04:25:26.253Z,383.00
2023-05-05T04:26:26.249Z,394.00
2023-05-05T04:27:26.260Z,406.00
2023-05-05T04:28:26.225Z,417.00
2023-05-05T04:29:26.218Z,430.00
2023-05-05T04:30:26.240Z,444.00
2023-05-05T04:31:26.288Z,458.00
2023-05-05T04:32:26.322Z,473.00
2023-05-05T04:33:26.323Z,489.00
2023-05-05T04:34:26.339Z,503.00
2023-05-05T04:35:26.361Z,520.00
2023-05-05T04:36:26.394Z,538.00
2023-05-05T04:37:26.421Z,553.00
2023-05-05T04:38:26.621Z,569.00
2023-05-05T04:39:26.460Z,587.00
2023-05-05T04:40:26.480Z,605.00
2023-05-05T04:41:28.258Z,617.00
2023-05-05T04:42:26.455Z,632.00
2023-05-05T04:43:26.478Z,647.00
2023-05-05T04:44:26.500Z,663.00
2023-05-05T04:45:26.509Z,677.00
2023-05-05T04:46:26.599Z,686.00
2023-05-05T04:47:26.556Z,695.00
2023-05-05T04:48:26.514Z,703.00
2023-05-05T04:49:26.534Z,711.00
2023-05-05T04:50:26.560Z,721.00
2023-05-05T04:51:26.569Z,730.00
2023-05-05T04:52:26.597Z,739.00
2023-05-05T04:53:26.616Z,749.00
2023-05-05T04:54:26.608Z,760.00
2023-05-05T04:55:26.607Z,770.00
2023-05-05T04:56:26.641Z,782.00
2023-05-05T04:57:26.733Z,795.00
2023-05-05T04:58:26.648Z,808.00
2023-05-05T04:59:26.674Z,818.00
2023-05-05T05:01:52.655Z,841.00
2023-05-05T05:02:52.771Z,851.00
2023-05-05T05:03:52.753Z,863.00
2023-05-05T05:04:52.658Z,873.00
2023-05-05T05:05:52.689Z,886.00
2023-05-05T05:06:52.700Z,894.00
2023-05-05T05:07:52.772Z,902.00
2023-05-05T05:08:52.734Z,910.00
2023-05-05T05:09:52.809Z,921.00
2023-05-05T05:10:52.761Z,934.00
2023-05-05T05:11:52.769Z,948.00
2023-05-05T05:12:52.858Z,959.00
2023-05-05T05:13:52.776Z,967.00
2023-05-05T05:14:52.790Z,973.00
2023-05-05T05:15:52.790Z,982.00
2023-05-05T05:16:52.999Z,995.00
2023-05-05T05:17:52.885Z,1006.00
2023-05-05T05:18:52.864Z,1019.00
2023-05-05T05:19:52.892Z,1038.00
2023-05-05T05:20:52.884Z,1053.00
2023-05-05T05:21:52.927Z,1073.00
2023-05-05T05:22:52.946Z,1104.00
2023-05-05T05:23:52.954Z,1135.00
2023-05-05T05:24:52.976Z,1171.00
2023-05-05T05:25:53.023Z,1218.00
2023-05-05T05:26:53.045Z,1239.00
2023-05-05T05:28:08.331Z,1238.00
2023-05-05T05:28:53.081Z,1230.00
2023-05-05T05:29:53.103Z,1229.00
2023-05-05T05:30:53.118Z,1231.00
2023-05-05T05:31:53.105Z,1233.00
2023-05-05T05:32:53.158Z,1236.00
2023-05-05T05:33:53.131Z,1242.00
2023-05-05T05:34:53.162Z,1247.00
2023-05-05T05:35:53.128Z,1239.00
2023-05-05T05:36:53.132Z,1233.00
2023-05-05T05:37:53.152Z,1230.00
2023-05-05T05:38:53.162Z,1228.00
2023-05-05T05:39:53.208Z,1230.00
2023-05-05T05:40:53.214Z,1229.00
2023-05-05T05:41:53.246Z,1227.00
2023-05-05T05:42:53.317Z,1231.00
2023-05-05T05:43:53.260Z,1235.00
2023-05-05T05:44:53.311Z,1246.00
2023-05-05T05:45:53.365Z,1251.00
2023-05-05T05:46:53.340Z,1254.00
2023-05-05T05:47:53.314Z,1258.00
2023-05-05T05:48:53.299Z,1252.00
2023-05-05T05:49:53.327Z,1244.00
2023-05-05T05:50:53.356Z,1245.00
2023-05-05T05:51:53.362Z,1260.00
2023-05-05T05:52:53.352Z,1277.00
2023-05-05T05:53:53.349Z,1272.00
2023-05-05T05:54:53.395Z,1249.00
2023-05-05T05:55:53.369Z,1218.00
2023-05-05T05:56:53.364Z,1208.00
2023-05-05T05:57:53.395Z,1214.00
2023-05-05T05:58:53.377Z,1210.00
2023-05-05T05:59:53.402Z,1207.00
2023-05-05T06:00:53.410Z,1206.00
2023-05-05T06:01:53.417Z,1203.00
2023-05-05T06:02:53.513Z,1205.00
2023-05-05T06:03:53.511Z,1207.00
2023-05-05T06:04:53.471Z,1211.00
2023-05-05T06:05:53.486Z,1217.00
2023-05-05T06:06:53.487Z,1225.00
2023-05-05T06:07:53.509Z,1237.00
2023-05-05T06:08:53.509Z,1250.00
2023-05-05T06:09:53.544Z,1268.00
2023-05-05T06:10:53.556Z,1294.00
2023-05-05T06:11:53.573Z,1326.00
2023-05-05T06:12:53.715Z,1359.00
2023-05-05T06:13:53.651Z,1389.00
2023-05-05T06:14:53.666Z,1420.00
2023-05-05T06:15:53.683Z,1445.00
2023-05-05T06:16:53.656Z,1467.00
2023-05-05T06:17:53.749Z,1483.00
2023-05-05T06:18:53.667Z,1495.00
2023-05-05T06:19:54.599Z,1511.00
2023-05-05T06:20:53.707Z,1519.00
2023-05-05T06:21:53.746Z,1526.00
2023-05-05T06:22:53.727Z,1525.00
2023-05-05T06:23:53.759Z,1514.00
2023-05-05T06:24:53.785Z,1517.00
2023-05-05T06:25:53.808Z,1527.00
2023-05-05T06:26:53.828Z,1533.00
2023-05-05T06:27:53.840Z,1539.00
2023-05-05T06:28:53.850Z,1544.00
2023-05-05T06:29:53.870Z,1546.00
2023-05-05T06:30:53.835Z,1556.00
2023-05-05T06:31:54.005Z,1568.00
2023-05-05T06:32:53.895Z,1588.00
2023-05-05T06:33:53.918Z,1609.00
2023-05-05T06:34:53.894Z,1625.00
2023-05-05T06:35:53.906Z,1635.00
2023-05-05T06:36:54.099Z,1638.00
2023-05-05T06:37:53.951Z,1627.00
2023-05-05T06:38:53.946Z,1622.00
2023-05-05T06:39:53.974Z,1634.00
2023-05-05T06:40:53.981Z,1632.00
2023-05-05T06:41:54.024Z,1620.00
2023-05-05T06:42:54.035Z,1601.00
2023-05-05T06:43:54.049Z,1590.00
2023-05-05T06:44:54.064Z,1571.00
2023-05-05T06:45:54.112Z,1566.00
2023-05-05T06:46:54.115Z,1571.00
2023-05-05T06:47:54.184Z,1574.00
2023-05-05T06:48:54.107Z,1573.00
2023-05-05T06:49:54.106Z,1581.00
2023-05-05T06:50:54.129Z,1596.00
2023-05-05T06:51:54.126Z,1595.00
2023-05-05T06:52:54.150Z,1601.00
2023-05-05T06:53:54.168Z,1614.00
2023-05-05T06:54:54.176Z,1631.00
2023-05-05T06:55:54.220Z,1669.00
2023-05-05T06:56:54.216Z,1724.00
2023-05-05T06:57:54.236Z,1806.00
2023-05-05T06:58:54.257Z,1920.00
2023-05-05T06:59:54.279Z,2133.00
2023-05-05T07:00:54.411Z,2464.00
2023-05-05T07:01:54.500Z,2872.00
2023-05-05T07:02:54.417Z,3224.00
2023-05-05T07:03:54.354Z,3430.00
2023-05-05T07:04:54.390Z,3512.00
2023-05-05T07:05:54.427Z,3494.00
2023-05-05T07:06:54.403Z,3382.00
2023-05-05T07:07:54.392Z,3061.00
2023-05-05T07:08:54.389Z,2692.00
2023-05-05T07:09:54.417Z,2316.00
2023-05-05T07:10:54.457Z,2080.00
2023-05-05T07:11:54.439Z,2007.00
2023-05-05T07:12:54.480Z,2052.00
2023-05-05T07:13:54.490Z,2076.00
2023-05-05T07:14:54.514Z,2041.00
2023-05-05T07:15:54.528Z,1985.00
2023-05-05T07:16:54.626Z,1946.00
2023-05-05T07:17:54.770Z,1931.00
2023-05-05T07:18:54.630Z,1933.00
2023-05-05T07:19:54.548Z,1931.00
2023-05-05T07:20:54.573Z,1951.00
2023-05-05T07:21:54.655Z,1971.00
2023-05-05T07:22:54.665Z,2001.00
2023-05-05T07:23:54.657Z,2024.00
2023-05-05T07:24:54.686Z,2044.00
2023-05-05T07:25:54.665Z,2060.00
2023-05-05T07:26:54.667Z,2071.00
2023-05-05T07:27:54.696Z,2100.00
2023-05-05T07:28:54.702Z,2140.00
2023-05-05T07:29:54.727Z,2187.00
2023-05-05T07:30:54.754Z,2243.00
2023-05-05T07:31:54.841Z,2308.00
2023-05-05T07:32:55.158Z,2380.00
2023-05-05T07:33:54.908Z,2463.00
2023-05-05T07:34:54.858Z,2566.00
2023-05-05T07:35:54.845Z,2703.00
2023-05-05T07:36:54.831Z,2877.00
2023-05-05T07:37:54.853Z,3137.00
2023-05-05T07:38:54.847Z,3451.00
2023-05-05T07:39:54.884Z,3738.00
2023-05-05T07:40:54.867Z,4010.00
2023-05-05T07:41:54.899Z,4229.00
2023-05-05T07:42:54.934Z,4289.00
2023-05-05T07:43:54.967Z,4172.00
2023-05-05T07:44:54.938Z,3960.00
2023-05-05T07:45:55.009Z,3879.00
2023-05-05T07:46:54.973Z,3922.00
2023-05-05T07:47:55.011Z,4086.00
2023-05-05T07:48:54.999Z,4181.00
2023-05-05T07:49:55.240Z,4152.00
2023-05-05T07:50:55.000Z,3912.00
2023-05-05T07:51:54.995Z,3685.00
2023-05-05T07:53:54.999Z,3270.00
2023-05-05T07:54:55.065Z,3186.00
2023-05-05T07:55:55.044Z,3209.00
2023-05-05T07:56:55.065Z,3284.00
2023-05-05T07:57:55.068Z,3444.00
2023-05-05T07:58:55.099Z,3610.00
2023-05-05T07:59:55.074Z,3666.00
2023-05-05T08:00:55.091Z,3544.00
2023-05-05T08:01:55.147Z,3481.00
2023-05-05T08:02:55.289Z,3429.00
2023-05-05T08:03:55.320Z,3405.00
2023-05-05T08:04:55.148Z,3434.00
2023-05-05T08:05:55.332Z,3585.00
2023-05-05T08:06:55.204Z,3755.00
2023-05-05T08:07:55.194Z,3869.00
2023-05-05T08:08:55.223Z,3975.00
2023-05-05T08:09:55.244Z,3929.00
2023-05-05T08:10:55.270Z,3855.00
2023-05-05T08:11:55.266Z,3710.00
2023-05-05T08:12:55.266Z,3602.00
2023-05-05T08:13:55.277Z,3442.00
2023-05-05T08:14:55.251Z,3237.00
2023-05-05T08:15:55.308Z,2934.00
2023-05-05T08:16:55.284Z,2612.00
2023-05-05T08:17:55.319Z,2355.00
2023-05-05T08:18:55.292Z,2192.00
2023-05-05T08:19:55.310Z,2103.00
2023-05-05T08:20:55.335Z,2042.00
2023-05-05T08:21:55.458Z,2006.00
2023-05-05T08:22:55.382Z,1982.00
2023-05-05T08:23:55.428Z,1990.00
2023-05-05T08:24:55.405Z,1972.00
2023-05-05T08:25:55.421Z,1963.00
2023-05-05T08:26:55.435Z,1947.00
2023-05-05T08:27:55.435Z,1935.00
2023-05-05T08:28:55.410Z,1931.00
2023-05-05T08:29:55.432Z,1924.00
2023-05-05T08:30:55.454Z,1935.00
2023-05-05T08:31:55.599Z,1975.00
2023-05-05T08:32:55.615Z,1986.00
2023-05-05T08:33:55.497Z,2000.00
2023-05-05T08:34:56.305Z,2041.00
2023-05-05T08:35:55.542Z,2061.00
2023-05-05T08:36:55.506Z,2098.00
2023-05-05T08:37:58.158Z,2142.00
2023-05-05T08:38:55.506Z,2165.00
2023-05-05T08:39:55.527Z,2199.00
2023-05-05T08:40:55.554Z,2227.00
2023-05-05T08:41:55.540Z,2238.00
2023-05-05T08:42:55.546Z,2275.00
2023-05-05T08:43:55.558Z,2337.00
2023-05-05T08:44:57.271Z,2384.00
2023-05-05T08:45:55.624Z,2405.00
2023-05-05T08:46:55.623Z,2438.00
2023-05-05T08:47:55.654Z,2444.00
2023-05-05T08:48:55.628Z,2504.00
2023-05-05T08:49:55.613Z,2605.00
2023-05-05T08:50:57.270Z,2733.00
2023-05-05T08:51:55.680Z,2861.00
2023-05-05T08:52:55.654Z,3014.00
2023-05-05T08:53:55.758Z,3094.00
2023-05-05T08:54:55.649Z,3121.00
2023-05-05T08:55:55.644Z,3180.00
2023-05-05T08:56:55.749Z,3326.00
2023-05-05T08:57:55.740Z,3483.00
2023-05-05T08:58:55.681Z,3637.00
2023-05-05T08:59:55.693Z,3767.00
2023-05-05T09:00:55.775Z,3929.00
2023-05-05T09:01:55.833Z,3973.00
2023-05-05T09:02:55.854Z,3835.00
2023-05-05T09:03:55.732Z,3543.00
2023-05-05T09:04:55.741Z,3542.00
2023-05-05T09:05:55.745Z,3608.00
2023-05-05T09:06:55.792Z,3603.00
2023-05-05T09:07:55.767Z,3659.00
2023-05-05T09:08:58.965Z,3972.00
2023-05-05T09:09:55.971Z,4529.00
2023-05-05T09:10:55.851Z,5082.00
2023-05-05T09:11:55.905Z,5319.00
2023-05-05T09:12:55.918Z,5536.00
2023-05-05T09:13:55.916Z,5776.00
2023-05-05T09:14:57.890Z,5836.00
2023-05-05T09:15:55.896Z,5802.00
2023-05-05T09:16:55.953Z,5820.00
2023-05-05T09:17:56.028Z,5771.00
2023-05-05T09:18:55.908Z,5674.00
2023-05-05T09:19:55.933Z,5698.00
2023-05-05T09:20:57.513Z,5498.00
2023-05-05T09:21:55.983Z,5374.00
2023-05-05T09:22:55.948Z,5178.00
2023-05-05T09:23:58.509Z,4873.00
2023-05-05T09:24:56.001Z,4534.00
2023-05-05T09:25:56.105Z,4311.00
2023-05-05T09:26:57.383Z,4144.00
2023-05-05T09:27:56.055Z,4025.00
2023-05-05T09:28:56.045Z,4095.00
2023-05-05T09:29:56.035Z,3961.00
2023-05-05T09:30:56.102Z,4125.00
2023-05-05T09:31:56.049Z,4395.00
2023-05-05T09:32:56.181Z,4568.00
2023-05-05T09:33:56.118Z,4559.00
2023-05-05T09:34:56.102Z,4506.00
2023-05-05T09:35:56.116Z,4510.00
2023-05-05T09:36:56.119Z,4430.00
2023-05-05T09:37:56.116Z,4127.00
2023-05-05T09:38:58.301Z,4036.00
2023-05-05T09:39:56.149Z,3934.00
2023-05-05T09:40:56.174Z,4113.00
2023-05-05T09:41:56.368Z,4176.00
2023-05-05T09:42:56.147Z,4270.00
2023-05-05T09:43:56.193Z,4474.00
2023-05-05T09:44:57.855Z,4629.00
2023-05-05T09:45:56.188Z,4666.00
2023-05-05T09:46:56.173Z,4440.00
2023-05-05T09:47:59.615Z,4125.00
2023-05-05T09:48:56.186Z,4020.00
2023-05-05T09:49:56.175Z,3801.00
2023-05-05T09:50:56.202Z,3551.00
2023-05-05T09:51:56.228Z,3411.00
2023-05-05T09:52:56.297Z,3264.00
2023-05-05T09:53:56.301Z,3378.00
2023-05-05T09:54:56.274Z,3590.00
2023-05-05T09:55:56.324Z,3892.00
2023-05-05T09:56:56.328Z,3883.00
2023-05-05T09:57:56.530Z,3680.00
2023-05-05T09:58:58.210Z,3575.00
2023-05-05T09:59:56.387Z,3355.00
2023-05-05T10:00:56.419Z,3123.00
2023-05-05T10:01:56.549Z,2975.00
2023-05-05T10:02:56.476Z,2938.00
2023-05-05T10:03:56.487Z,3000.00
2023-05-05T10:04:56.574Z,2852.00
2023-05-05T10:05:56.528Z,2589.00
2023-05-05T10:06:56.501Z,2655.00
2023-05-05T10:07:56.522Z,2631.00
2023-05-05T10:08:56.547Z,2556.00
2023-05-05T10:09:56.550Z,2478.00
2023-05-05T10:10:56.602Z,2321.00
2023-05-05T10:11:56.585Z,2228.00
2023-05-05T10:12:56.621Z,2222.00
2023-05-05T10:13:56.704Z,2220.00
2023-05-05T10:14:56.625Z,2271.00
2023-05-05T10:15:56.775Z,2283.00
2023-05-05T10:16:56.704Z,2302.00
2023-05-05T10:18:06.706Z,2346.00
2023-05-05T10:18:56.697Z,2338.00
2023-05-05T10:19:56.704Z,2365.00
2023-05-05T10:20:56.735Z,2407.00
2023-05-05T10:21:56.707Z,2495.00
2023-05-05T10:22:56.744Z,2552.00
2023-05-05T10:23:56.781Z,2617.00
2023-05-05T10:24:56.757Z,2739.00
2023-05-05T10:25:56.810Z,2931.00
2023-05-05T10:26:56.791Z,3002.00
2023-05-05T10:27:56.796Z,3123.00
2023-05-05T10:28:56.813Z,3324.00
2023-05-05T10:29:56.921Z,3492.00
2023-05-05T10:30:56.869Z,3839.00
2023-05-05T10:31:56.889Z,4080.00
2023-05-05T10:33:05.084Z,4193.00
2023-05-05T10:33:56.998Z,4220.00
2023-05-05T10:34:56.928Z,4461.00
2023-05-05T10:35:56.956Z,4774.00
2023-05-05T10:36:56.961Z,5110.00
2023-05-05T10:37:56.996Z,5471.00
2023-05-05T10:38:57.037Z,5754.00
2023-05-05T10:39:57.054Z,5988.00
2023-05-05T10:40:57.089Z,6173.00
2023-05-05T10:41:57.074Z,6238.00
2023-05-05T10:42:57.111Z,6327.00
2023-05-05T10:43:57.163Z,6480.00
2023-05-05T10:44:57.175Z,6557.00
2023-05-05T10:45:57.369Z,6597.00
2023-05-05T10:46:57.147Z,6668.00
2023-05-05T10:47:57.156Z,6686.00
2023-05-05T10:48:57.167Z,6560.00
2023-05-05T10:49:57.131Z,6396.00
2023-05-05T10:50:57.161Z,6255.00
2023-05-05T10:51:57.192Z,6132.00
2023-05-05T10:52:57.233Z,6058.00
2023-05-05T10:53:57.231Z,6115.00
2023-05-05T10:54:57.220Z,6165.00
2023-05-05T10:55:57.262Z,6228.00
2023-05-05T10:56:57.400Z,6242.00
2023-05-05T10:57:57.358Z,6155.00
2023-05-05T10:59:00.621Z,6146.00
2023-05-05T10:59:57.265Z,6279.00
2023-05-05T11:00:57.394Z,6297.00
2023-05-05T11:01:57.392Z,6259.00
2023-05-05T11:02:57.458Z,6315.00
2023-05-05T11:03:57.353Z,6383.00
2023-05-05T11:04:57.384Z,6580.00
2023-05-05T11:05:57.384Z,6957.00
2023-05-05T11:06:57.402Z,7469.00
2023-05-05T11:07:57.469Z,7653.00
2023-05-05T11:08:57.459Z,7655.00
2023-05-05T11:09:57.478Z,7364.00
2023-05-05T11:10:57.515Z,7068.00
2023-05-05T11:11:57.504Z,6880.00
2023-05-05T11:12:57.574Z,6598.00
2023-05-05T11:13:57.536Z,6392.00
2023-05-05T11:14:57.543Z,6422.00
2023-05-05T11:15:57.576Z,6646.00
2023-05-05T11:16:57.643Z,6639.00
2023-05-05T11:17:57.877Z,6545.00
2023-05-05T11:18:57.654Z,6571.00
2023-05-05T11:19:57.690Z,6527.00
2023-05-05T11:20:57.692Z,6650.00
2023-05-05T11:21:57.719Z,6781.00
2023-05-05T11:22:57.751Z,6687.00
2023-05-05T11:23:57.781Z,6801.00
2023-05-05T11:24:57.769Z,6995.00
2023-05-05T11:25:57.792Z,6990.00
2023-05-05T11:26:57.809Z,7095.00
2023-05-05T11:27:57.822Z,7328.00
2023-05-05T11:28:57.866Z,7378.00
2023-05-05T11:29:57.872Z,7457.00
2023-05-05T11:30:58.537Z,7746.00
2023-05-05T11:31:57.905Z,7904.00
2023-05-05T11:32:57.951Z,7881.00
2023-05-05T11:33:58.030Z,7742.00
2023-05-05T11:34:57.952Z,7694.00
2023-05-05T11:35:57.957Z,7745.00
2023-05-05T11:36:57.927Z,7930.00
2023-05-05T11:37:57.959Z,7862.00
2023-05-05T11:38:57.975Z,7641.00
2023-05-05T11:39:57.989Z,7406.00
2023-05-05T11:40:58.001Z,6897.00
2023-05-05T11:41:58.033Z,6498.00
2023-05-05T11:42:58.068Z,5999.00
2023-05-05T11:43:58.062Z,5576.00
2023-05-05T11:44:58.078Z,5370.00
2023-05-05T11:45:58.118Z,5223.00
2023-05-05T11:47:01.093Z,5037.00
2023-05-05T11:47:58.135Z,4804.00
2023-05-05T11:48:58.115Z,4679.00
2023-05-05T11:49:58.306Z,4591.00
2023-05-05T11:50:58.192Z,4613.00
2023-05-05T11:51:58.161Z,5247.00
2023-05-05T11:52:58.269Z,5920.00
2023-05-05T11:53:59.158Z,6184.00
2023-05-05T11:54:58.200Z,6351.00
2023-05-05T11:55:58.226Z,6500.00
2023-05-05T11:56:58.243Z,6384.00
2023-05-05T11:57:58.269Z,6258.00
2023-05-05T11:58:58.277Z,6044.00
2023-05-05T11:59:58.291Z,5967.00
2023-05-05T12:00:58.327Z,5847.00
2023-05-05T12:01:58.363Z,5782.00
2023-05-05T12:02:58.390Z,6131.00
2023-05-05T12:03:58.635Z,6388.00
2023-05-05T12:04:58.477Z,6986.00
2023-05-05T12:05:58.340Z,7425.00
2023-05-05T12:06:58.353Z,7361.00
2023-05-05T12:07:58.344Z,7384.00
2023-05-05T12:08:58.355Z,7494.00
2023-05-05T12:09:58.385Z,7786.00
2023-05-05T12:10:58.369Z,7921.00
2023-05-05T12:11:58.398Z,7771.00
2023-05-05T12:12:58.408Z,7319.00
2023-05-05T12:13:58.404Z,6818.00
2023-05-05T12:14:58.385Z,6723.00
2023-05-05T12:15:58.405Z,6676.00
2023-05-05T12:16:58.414Z,6434.00
2023-05-05T12:18:00.003Z,6244.00
2023-05-05T12:18:58.406Z,6103.00
2023-05-05T12:19:58.421Z,5927.00
2023-05-05T12:20:58.430Z,5688.00
2023-05-05T12:21:58.512Z,5316.00
2023-05-05T12:22:58.450Z,5039.00
2023-05-05T12:23:58.477Z,5008.00
2023-05-05T12:24:58.498Z,5188.00
2023-05-05T12:25:58.509Z,5084.00
2023-05-05T12:26:58.529Z,4588.00
2023-05-05T12:27:58.514Z,4166.00
2023-05-05T12:28:58.582Z,3958.00
2023-05-05T12:29:58.573Z,3898.00
2023-05-05T12:30:58.596Z,4063.00
2023-05-05T12:31:58.629Z,4324.00